This is the latest recevied weather packets stored in our database for station/object I4VBO-14. If no packets are shown the sender has not sent any weather packets the latest 10 day(s).
| Time | Temp. | Humidity | Pressure | Rain* | Wind** | Luminosity | Snow |
|---|---|---|---|---|---|---|---|
| 1788117474 | 31.67° C | 34% | 963.5 hPa | - | - | - | - |
| 1788117175 | 31.67° C | 34% | 963.4 hPa | - | - | - | - |
| 1788116874 | 31.67° C | 33% | 963.4 hPa | - | - | - | - |
| 1788116574 | 31.67° C | 33% | 963.3 hPa | - | - | - | - |
| 1788116275 | 32.22° C | 33% | 963.2 hPa | - | - | - | - |
| 1788115974 | 32.22° C | 33% | 963.3 hPa | - | - | - | - |
| 1788115674 | 32.22° C | 33% | 963.2 hPa | - | - | - | - |
| 1788115373 | 32.78° C | 33% | 963.2 hPa | - | - | - | - |
| 1788115074 | 32.78° C | 33% | 963.1 hPa | - | - | - | - |
| 1788114773 | 32.78° C | 33% | 963 hPa | - | - | - | - |
| 1788114473 | 32.78° C | 33% | 963 hPa | - | - | - | - |
| 1788114173 | 33.33° C | 33% | 962.9 hPa | - | - | - | - |
| 1788113873 | 33.33° C | 32% | 962.8 hPa | - | - | - | - |
| 1788113573 | 33.33° C | 33% | 962.7 hPa | - | - | - | - |
| 1788113272 | 33.89° C | 32% | 962.7 hPa | - | - | - | - |
| 1788112972 | 33.89° C | 32% | 962.6 hPa | - | - | - | - |
| 1788112672 | 34.44° C | 32% | 962.5 hPa | - | - | - | - |
| 1788112371 | 35° C | 32% | 962.5 hPa | - | - | - | - |
| 1788112072 | 36.11° C | 30% | 962.6 hPa | - | - | - | - |
| 1788111771 | 35° C | 32% | 962.3 hPa | - | - | - | - |
| 1788111471 | 35.56° C | 31% | 962.2 hPa | - | - | - | - |
| 1788111171 | 36.67° C | 30% | 962.3 hPa | - | - | - | - |
| 1788110558 | 38.89° C | 27% | 967.2 hPa | - | - | - | - |
| 1788109623 | 39.44° C | 27% | 935 hPa | - | - | - | - |
| 1788109323 | 38.89° C | 29% | 926.4 hPa | - | - | - | - |
* Rain since midnight (hover to see other rain measurements)
** Current wind speed in m/s (hover to see current wind gust speed)